Time;durP1;ratioP1;P1;durP2;ratioP2;P2;SDS_P1;SDS_P2;PMS_P1;PMS_P2;Temp;Humidity;BMP_temperature;BMP_pressure;BME280_temperature;BME280_humidity;BME280_pressure;Samples;Min_cycle;Max_cycle;Signal;HPM_P1;HPM_P2
2021/10/09 00:00:10;;;;;;;35.50;31.02;;;9.90;99.90;;;;;;5053885;28;20075;-67
2021/10/09 00:02:36;;;;;;;36.60;31.48;;;9.90;99.90;;;;;;5058557;28;20044;-67
2021/10/09 00:05:02;;;;;;;38.13;31.70;;;9.90;99.90;;;;;;5030109;28;20048;-67
2021/10/09 00:07:28;;;;;;;41.42;34.05;;;9.90;99.90;;;;;;5060083;28;20394;-67
2021/10/09 00:09:58;;;;;;;39.13;33.78;;;9.90;99.90;;;;;;5059278;28;20385;-67
2021/10/09 00:12:24;;;;;;;43.40;35.58;;;9.90;99.90;;;;;;5029272;28;20136;-66
2021/10/09 00:14:50;;;;;;;41.78;34.42;;;9.90;99.90;;;;;;5057589;28;21412;-66
2021/10/09 00:17:18;;;;;;;37.17;30.88;;;9.90;99.90;;;;;;5051878;28;20039;-66
2021/10/09 00:19:43;;;;;;;40.03;33.13;;;9.90;99.90;;;;;;5074335;28;20163;-66
2021/10/09 00:22:09;;;;;;;45.63;36.10;;;9.90;99.90;;;;;;5039369;28;20507;-66
2021/10/09 00:24:35;;;;;;;43.05;35.30;;;9.90;99.90;;;;;;5056276;28;20057;-66
2021/10/09 00:27:01;;;;;;;41.58;34.70;;;9.90;99.90;;;;;;5046966;28;20052;-66
2021/10/09 00:29:26;;;;;;;44.67;35.38;;;9.90;99.90;;;;;;5061467;28;20029;-66
2021/10/09 00:31:52;;;;;;;46.08;36.67;;;9.90;99.90;;;;;;5035269;28;20045;-66
2021/10/09 00:34:17;;;;;;;43.95;35.10;;;10.00;99.90;;;;;;5039879;28;20033;-66
2021/10/09 00:36:43;;;;;;;44.95;36.42;;;10.00;99.90;;;;;;5036058;28;20065;-66
2021/10/09 00:39:09;;;;;;;45.30;35.42;;;10.00;99.90;;;;;;5064683;28;20433;-66
2021/10/09 00:41:35;;;;;;;44.50;34.20;;;10.00;99.90;;;;;;5052533;28;20499;-66
2021/10/09 00:44:12;;;;;;;43.90;36.67;;;10.10;99.90;;;;;;5059326;28;20128;-66
2021/10/09 00:46:39;;;;;;;48.13;37.17;;;10.10;99.90;;;;;;5027520;28;20028;-66
2021/10/09 00:49:06;;;;;;;47.50;35.20;;;10.10;99.90;;;;;;5039828;28;20452;-66
2021/10/09 00:51:32;;;;;;;47.33;35.63;;;10.10;99.90;;;;;;5056090;28;20119;-66
2021/10/09 00:54:01;;;;;;;46.33;36.28;;;10.10;99.90;;;;;;5054184;28;20492;-66
2021/10/09 00:56:30;;;;;;;49.15;36.25;;;10.20;99.90;;;;;;5051183;28;20068;-66
2021/10/09 00:58:56;;;;;;;40.88;34.38;;;10.20;99.90;;;;;;5053731;28;20396;-67
2021/10/09 01:01:21;;;;;;;44.20;33.90;;;10.10;99.90;;;;;;5054000;28;20583;-66
2021/10/09 01:03:50;;;;;;;46.63;35.90;;;10.20;99.90;;;;;;5048111;28;20057;-66
2021/10/09 01:06:16;;;;;;;49.05;35.50;;;10.10;99.90;;;;;;5036863;28;20142;-66
2021/10/09 01:08:41;;;;;;;46.97;35.80;;;10.10;99.90;;;;;;5051649;28;20123;-66
2021/10/09 01:11:07;;;;;;;41.97;35.83;;;10.10;99.90;;;;;;5058753;28;20611;-66
2021/10/09 01:13:33;;;;;;;48.58;36.88;;;10.10;99.90;;;;;;5044454;28;20106;-66
2021/10/09 01:15:58;;;;;;;48.22;37.60;;;10.10;99.90;;;;;;5058924;28;20044;-67
2021/10/09 01:18:24;;;;;;;46.85;37.28;;;10.10;99.90;;;;;;5057358;28;20037;-66
2021/10/09 01:20:53;;;;;;;47.63;37.10;;;10.10;99.90;;;;;;5058291;28;20140;-66
2021/10/09 01:23:20;;;;;;;47.30;36.88;;;10.10;99.90;;;;;;5030518;28;20073;-66
2021/10/09 01:25:47;;;;;;;46.80;36.13;;;10.10;99.90;;;;;;5042131;28;20037;-66
2021/10/09 01:28:12;;;;;;;49.63;36.92;;;10.10;99.90;;;;;;5057397;28;20055;-66
2021/10/09 01:30:38;;;;;;;47.45;35.65;;;10.10;99.90;;;;;;5054636;28;20350;-67
2021/10/09 01:33:05;;;;;;;47.35;35.58;;;10.10;99.90;;;;;;5055908;28;20044;-66
2021/10/09 01:35:31;;;;;;;46.47;36.92;;;10.10;99.90;;;;;;5052878;28;20041;-66
2021/10/09 01:37:57;;;;;;;53.65;37.17;;;10.10;99.90;;;;;;5063003;28;20083;-66
2021/10/09 01:40:23;;;;;;;47.72;36.22;;;10.00;99.90;;;;;;5056528;28;20045;-66
2021/10/09 01:42:49;;;;;;;53.00;37.50;;;10.00;99.90;;;;;;5056736;28;20041;-66
2021/10/09 01:45:15;;;;;;;54.40;38.58;;;10.00;99.90;;;;;;5056051;28;20047;-66
2021/10/09 01:47:42;;;;;;;53.20;38.13;;;10.00;99.90;;;;;;5056621;28;20053;-66
2021/10/09 01:50:10;;;;;;;51.75;36.63;;;10.00;99.90;;;;;;5044564;28;20052;-66
2021/10/09 01:52:36;;;;;;;49.55;37.22;;;9.90;99.90;;;;;;5059373;28;20566;-66
2021/10/09 01:55:02;;;;;;;58.55;39.05;;;9.90;99.90;;;;;;5036347;28;20048;-66
2021/10/09 01:57:28;;;;;;;57.60;39.08;;;9.90;99.90;;;;;;5057509;28;20119;-66
2021/10/09 01:59:54;;;;;;;56.30;37.75;;;9.90;99.90;;;;;;5042579;28;20155;-66
2021/10/09 02:02:20;;;;;;;55.35;38.95;;;9.90;99.90;;;;;;5065483;28;20036;-66
2021/10/09 02:04:46;;;;;;;49.83;35.60;;;9.90;99.90;;;;;;5033474;28;20040;-67
2021/10/09 02:07:18;;;;;;;49.95;36.83;;;9.90;99.90;;;;;;5043805;28;20406;-67
2021/10/09 02:09:44;;;;;;;53.72;36.85;;;9.80;99.90;;;;;;5061544;28;20098;-67
2021/10/09 02:12:10;;;;;;;63.85;39.70;;;9.80;99.90;;;;;;5028926;28;20045;-67
2021/10/09 02:14:44;;;;;;;55.55;38.20;;;9.80;99.90;;;;;;5046010;28;20052;-67
2021/10/09 02:17:31;;;;;;;56.65;39.53;;;9.70;99.90;;;;;;5058910;28;20072;-68
2021/10/09 02:27:56;;;;;;;64.28;39.45;;;9.70;99.90;;;;;;5058871;28;20066;-68
2021/10/09 02:30:22;;;;;;;65.78;40.65;;;9.70;99.90;;;;;;5059214;28;20541;-68
2021/10/09 02:32:48;;;;;;;64.45;41.78;;;9.70;99.90;;;;;;5054117;28;20111;-68
2021/10/09 02:35:13;;;;;;;63.95;40.70;;;9.60;99.90;;;;;;5053182;28;20107;-68
2021/10/09 02:37:40;;;;;;;79.82;43.55;;;9.70;99.90;;;;;;5036774;28;20520;-67
2021/10/09 02:40:06;;;;;;;74.10;44.17;;;9.70;99.90;;;;;;5045734;28;20041;-68
2021/10/09 02:42:32;;;;;;;89.25;47.40;;;9.70;99.90;;;;;;5058191;28;20397;-67
2021/10/09 02:44:57;;;;;;;93.13;46.95;;;9.70;99.90;;;;;;5035869;28;20036;-68
2021/10/09 02:47:23;;;;;;;94.10;48.65;;;9.80;99.90;;;;;;5033200;28;20037;-68
2021/10/09 02:49:49;;;;;;;106.75;50.70;;;9.80;99.90;;;;;;5055982;28;20047;-68
2021/10/09 02:52:15;;;;;;;114.25;52.58;;;9.80;99.90;;;;;;5035364;28;20041;-67
2021/10/09 02:54:40;;;;;;;125.57;53.63;;;9.80;99.90;;;;;;5054556;28;20408;-68
2021/10/09 02:57:06;;;;;;;125.35;52.75;;;9.80;99.90;;;;;;5054354;28;20097;-68
2021/10/09 02:59:32;;;;;;;114.75;52.08;;;9.80;99.90;;;;;;5063567;28;21223;-67
2021/10/09 03:01:57;;;;;;;101.20;48.55;;;9.90;99.90;;;;;;5032196;28;20093;-67
2021/10/09 03:04:23;;;;;;;115.88;52.22;;;9.90;99.90;;;;;;5055803;28;20075;-68
2021/10/09 03:06:49;;;;;;;149.27;55.45;;;9.90;99.90;;;;;;5055604;28;20052;-67
2021/10/09 03:09:15;;;;;;;139.77;57.88;;;9.90;99.90;;;;;;5046526;28;20032;-67
2021/10/09 03:11:40;;;;;;;158.38;57.58;;;9.90;99.90;;;;;;5036066;28;20049;-67
2021/10/09 03:14:06;;;;;;;115.70;52.05;;;9.90;99.90;;;;;;5036487;28;20353;-67
2021/10/09 03:16:32;;;;;;;155.50;57.55;;;9.90;99.90;;;;;;5055036;28;20536;-67
2021/10/09 03:18:57;;;;;;;103.40;50.33;;;9.90;99.90;;;;;;5029964;28;20430;-67
2021/10/09 03:21:23;;;;;;;157.07;57.83;;;10.00;99.90;;;;;;5036333;28;20037;-67
2021/10/09 03:23:49;;;;;;;131.80;56.90;;;10.00;99.90;;;;;;5050711;28;20539;-67
2021/10/09 03:26:15;;;;;;;131.45;56.20;;;10.00;99.90;;;;;;5051728;28;20073;-67
2021/10/09 03:28:40;;;;;;;148.30;58.90;;;9.90;99.90;;;;;;5055131;28;20048;-67
2021/10/09 03:31:06;;;;;;;159.43;59.78;;;10.00;99.90;;;;;;5059061;28;20116;-67
2021/10/09 03:33:32;;;;;;;133.90;54.50;;;10.00;99.90;;;;;;5048397;28;20528;-67
2021/10/09 03:35:58;;;;;;;155.60;57.45;;;9.90;99.90;;;;;;5039981;28;20045;-67
2021/10/09 03:38:24;;;;;;;134.40;57.40;;;10.00;99.90;;;;;;5032551;28;20049;-67
2021/10/09 03:40:55;;;;;;;146.90;58.55;;;10.00;99.90;;;;;;5057480;28;20083;-67
2021/10/09 03:43:23;;;;;;;157.73;58.15;;;10.00;99.90;;;;;;5029839;28;20513;-67
2021/10/09 03:46:01;;;;;;;137.18;56.63;;;9.90;99.90;;;;;;5038105;28;20047;-67
2021/10/09 03:53:55;;;;;;;206.18;63.30;;;9.90;99.90;;;;;;5050676;28;20048;-67
2021/10/09 03:56:21;;;;;;;241.18;64.82;;;9.90;99.90;;;;;;5051206;28;20052;-67
2021/10/09 03:58:47;;;;;;;201.20;62.28;;;9.90;99.90;;;;;;5036880;28;20040;-67
2021/10/09 04:01:12;;;;;;;273.65;66.90;;;9.90;99.90;;;;;;5055176;28;20116;-67
2021/10/09 04:03:38;;;;;;;244.88;64.88;;;9.90;99.90;;;;;;5050260;28;20566;-67
2021/10/09 04:06:04;;;;;;;260.98;67.75;;;9.90;99.90;;;;;;5048779;28;20037;-67
2021/10/09 04:08:29;;;;;;;257.45;67.70;;;9.90;99.90;;;;;;5054411;28;20512;-67
2021/10/09 04:10:55;;;;;;;169.93;59.15;;;9.90;99.90;;;;;;5050513;28;20040;-67
2021/10/09 04:13:21;;;;;;;264.30;67.68;;;9.90;99.90;;;;;;5050149;28;20411;-67
2021/10/09 04:15:46;;;;;;;261.20;68.32;;;9.90;99.90;;;;;;5039849;28;20079;-67
2021/10/09 04:18:12;;;;;;;225.10;67.15;;;9.80;99.90;;;;;;5057140;28;20028;-67
2021/10/09 04:20:38;;;;;;;193.80;62.85;;;9.90;99.90;;;;;;5058852;28;20499;-67
2021/10/09 04:23:05;;;;;;;199.95;64.63;;;9.80;99.90;;;;;;5039758;28;20055;-67
2021/10/09 04:25:31;;;;;;;240.63;69.43;;;9.80;99.90;;;;;;5030434;28;20044;-67
2021/10/09 04:27:57;;;;;;;213.57;67.90;;;9.90;99.90;;;;;;5036114;28;20032;-67
2021/10/09 04:30:23;;;;;;;195.75;61.63;;;9.80;99.90;;;;;;5012003;28;20071;-67
2021/10/09 04:32:48;;;;;;;135.55;55.80;;;9.80;99.90;;;;;;5036050;28;20076;-67
2021/10/09 04:35:14;;;;;;;193.25;62.95;;;9.80;99.90;;;;;;5034860;28;20049;-68
2021/10/09 04:37:40;;;;;;;273.73;69.70;;;9.90;99.90;;;;;;5039830;28;20400;-67
2021/10/09 04:40:06;;;;;;;200.23;60.75;;;9.90;99.90;;;;;;5056856;28;20032;-67
2021/10/09 04:42:32;;;;;;;239.77;66.40;;;9.90;99.90;;;;;;5027356;28;20107;-67
2021/10/09 04:44:57;;;;;;;194.02;59.58;;;9.80;99.90;;;;;;5056638;28;20064;-67
2021/10/09 04:47:23;;;;;;;230.75;63.72;;;9.80;99.90;;;;;;5051543;28;20041;-67
2021/10/09 04:49:49;;;;;;;187.73;62.50;;;9.80;99.90;;;;;;5057498;28;20052;-68
2021/10/09 04:52:15;;;;;;;172.75;59.47;;;9.80;99.90;;;;;;5035563;28;20097;-67
2021/10/09 04:54:40;;;;;;;161.75;57.95;;;9.80;99.90;;;;;;5062740;28;20044;-67
2021/10/09 04:57:06;;;;;;;171.07;57.45;;;9.80;99.90;;;;;;5029860;28;20431;-68
2021/10/09 04:59:32;;;;;;;214.60;61.58;;;9.70;99.90;;;;;;5026900;28;20087;-67
2021/10/09 05:01:57;;;;;;;175.38;57.90;;;9.70;99.90;;;;;;5049411;28;20039;-68
2021/10/09 05:04:23;;;;;;;188.98;59.80;;;9.70;99.90;;;;;;5051692;28;20397;-67
2021/10/09 05:06:49;;;;;;;233.73;64.93;;;9.70;99.90;;;;;;5029843;28;20051;-68
2021/10/09 05:09:15;;;;;;;215.02;63.38;;;9.70;99.90;;;;;;5035706;28;20397;-67
2021/10/09 05:11:40;;;;;;;213.38;62.20;;;9.70;99.90;;;;;;5034895;28;20536;-67
2021/10/09 05:14:06;;;;;;;155.85;59.65;;;9.60;99.90;;;;;;5046254;28;20041;-67
2021/10/09 05:16:32;;;;;;;203.95;62.90;;;9.60;99.90;;;;;;5042189;28;20128;-67
2021/10/09 05:18:57;;;;;;;221.75;65.03;;;9.60;99.90;;;;;;5050147;28;20040;-67
2021/10/09 05:21:23;;;;;;;210.07;64.32;;;9.60;99.90;;;;;;5032317;28;20044;-67
2021/10/09 05:23:49;;;;;;;186.90;62.33;;;9.60;99.90;;;;;;5031562;28;20029;-67
2021/10/09 05:26:14;;;;;;;181.20;60.45;;;9.60;99.90;;;;;;5035153;28;20401;-68
2021/10/09 05:28:45;;;;;;;231.70;63.92;;;9.60;99.90;;;;;;5049075;28;20032;-68
2021/10/09 05:31:21;;;;;;;140.68;56.25;;;9.60;99.90;;;;;;5058718;28;20139;-68
2021/10/09 05:33:47;;;;;;;231.00;65.30;;;9.60;99.90;;;;;;5043020;28;20116;-67
2021/10/09 05:36:13;;;;;;;178.38;58.78;;;9.60;99.90;;;;;;5037641;28;20168;-68
2021/10/09 05:38:39;;;;;;;251.98;66.70;;;9.60;99.90;;;;;;5037753;28;20062;-68
2021/10/09 05:41:05;;;;;;;237.38;65.38;;;9.60;99.90;;;;;;5044220;28;20205;-67
2021/10/09 05:43:31;;;;;;;192.75;58.53;;;9.60;99.90;;;;;;5038823;28;20052;-69
2021/10/09 05:45:58;;;;;;;181.57;58.67;;;9.60;99.90;;;;;;5063776;28;20036;-68
2021/10/09 05:48:24;;;;;;;156.25;58.08;;;9.60;99.90;;;;;;5053553;28;20041;-68
2021/10/09 05:51:14;;;;;;;124.72;51.78;;;9.60;99.90;;;;;;5056305;28;20074;-68
2021/10/09 07:00:15;;;;;;;80.25;45.35;;;9.60;99.90;;;;;;5042297;28;20052;-67
2021/10/09 07:02:42;;;;;;;83.60;46.95;;;9.60;99.90;;;;;;5029460;28;20524;-67
2021/10/09 07:05:09;;;;;;;87.28;49.63;;;9.60;99.90;;;;;;5035126;28;20041;-67
2021/10/09 07:07:40;;;;;;;86.63;50.33;;;9.60;99.90;;;;;;5056698;28;20524;-68
2021/10/09 07:10:08;;;;;;;91.78;49.92;;;9.70;99.90;;;;;;5061971;28;20128;-67
2021/10/09 07:12:34;;;;;;;85.40;50.63;;;9.60;99.90;;;;;;5037538;28;20090;-67
2021/10/09 07:14:59;;;;;;;94.28;51.30;;;9.60;99.90;;;;;;5038148;28;20480;-67
2021/10/09 07:17:25;;;;;;;95.82;52.33;;;9.50;99.90;;;;;;5050849;28;20040;-68
2021/10/09 07:19:51;;;;;;;97.43;53.45;;;9.60;99.90;;;;;;5053904;28;20068;-68
2021/10/09 07:22:16;;;;;;;97.75;51.72;;;9.60;99.90;;;;;;5023921;28;20041;-68
2021/10/09 07:24:42;;;;;;;82.03;49.00;;;9.60;99.90;;;;;;5055801;28;20040;-68
2021/10/09 07:27:08;;;;;;;84.97;49.22;;;9.70;99.90;;;;;;5048810;28;20047;-69
2021/10/09 07:29:33;;;;;;;75.47;46.97;;;9.70;99.90;;;;;;5043115;28;20511;-68
2021/10/09 07:31:59;;;;;;;75.70;46.60;;;9.70;99.90;;;;;;5037094;28;20055;-68
2021/10/09 07:34:25;;;;;;;73.78;47.65;;;9.70;99.90;;;;;;5043323;28;20047;-68
2021/10/09 07:36:51;;;;;;;73.43;47.10;;;9.70;99.90;;;;;;5042952;28;20099;-68
2021/10/09 07:39:17;;;;;;;70.28;45.28;;;9.80;99.90;;;;;;5058572;28;20500;-69
2021/10/09 07:41:42;;;;;;;69.55;47.40;;;9.80;99.90;;;;;;5036910;28;20060;-67
2021/10/09 07:44:08;;;;;;;68.30;46.85;;;9.80;99.90;;;;;;5038379;28;20056;-68
2021/10/09 07:46:34;;;;;;;66.80;46.58;;;9.90;99.90;;;;;;5067088;28;20091;-67
2021/10/09 07:49:00;;;;;;;59.58;42.15;;;9.90;99.90;;;;;;5056968;28;20105;-68
2021/10/09 07:51:27;;;;;;;66.10;42.90;;;10.00;99.90;;;;;;5064017;28;20036;-68
2021/10/09 07:53:52;;;;;;;58.83;40.95;;;10.00;99.90;;;;;;5060482;28;20550;-67
2021/10/09 07:56:18;;;;;;;54.75;40.53;;;10.00;99.90;;;;;;5063378;28;20128;-67
2021/10/09 07:58:44;;;;;;;54.33;42.35;;;10.00;99.90;;;;;;5057621;28;20396;-67
2021/10/09 08:01:09;;;;;;;56.45;41.80;;;10.10;99.90;;;;;;5047185;28;20056;-66
2021/10/09 08:03:35;;;;;;;59.25;40.67;;;10.10;99.90;;;;;;5042784;28;20040;-67
2021/10/09 08:06:01;;;;;;;55.00;40.95;;;10.10;99.90;;;;;;5064679;28;20182;-67
2021/10/09 08:08:27;;;;;;;59.83;41.70;;;10.10;99.90;;;;;;5059664;28;20093;-68
2021/10/09 08:10:53;;;;;;;55.80;41.40;;;10.10;99.90;;;;;;5055627;28;20048;-68
2021/10/09 08:13:19;;;;;;;55.55;42.28;;;10.10;99.90;;;;;;5066219;28;20037;-68
2021/10/09 08:15:45;;;;;;;55.97;39.35;;;10.20;99.90;;;;;;5056076;28;20051;-68
2021/10/09 08:18:11;;;;;;;57.63;39.58;;;10.20;99.90;;;;;;5032463;28;20400;-67
2021/10/09 08:20:40;;;;;;;50.30;39.03;;;10.30;99.90;;;;;;5040179;28;20198;-67
2021/10/09 08:23:10;;;;;;;46.70;36.70;;;10.40;99.90;;;;;;5048282;28;20045;-67
2021/10/09 08:38:51;;;;;;;42.53;35.17;;;11.50;99.90;;;;;;5059814;28;20044;-67
2021/10/09 08:41:18;;;;;;;40.72;33.92;;;11.60;99.90;;;;;;5038792;28;20057;-67
2021/10/09 08:43:45;;;;;;;40.13;33.38;;;12.50;99.90;;;;;;5066343;28;20449;-67
2021/10/09 08:46:11;;;;;;;40.70;33.70;;;13.60;99.90;;;;;;5057596;28;20060;-67
2021/10/09 08:48:46;;;;;;;37.25;32.58;;;14.40;99.90;;;;;;5064798;28;20538;-68
2021/10/09 08:51:18;;;;;;;36.55;31.85;;;14.90;99.90;;;;;;5054830;28;20045;-67
2021/10/09 08:53:44;;;;;;;37.53;31.42;;;14.80;99.90;;;;;;5047717;28;20049;-68
2021/10/09 08:56:26;;;;;;;34.70;30.98;;;14.30;99.90;;;;;;5023008;28;20068;-67
2021/10/09 08:59:06;;;;;;;35.85;31.58;;;14.90;99.90;;;;;;5040392;28;20056;-68
2021/10/09 09:01:41;;;;;;;34.15;30.45;;;15.50;99.10;;;;;;5048297;28;20464;-68
2021/10/09 09:05:14;;;;;;;36.55;31.92;;;16.20;99.90;;;;;;5043271;28;20060;-67
2021/10/09 09:40:08;;;;;;;29.50;26.50;;;18.50;79.20;;;;;;5059189;28;20047;-67
2021/10/09 09:42:49;;;;;;;28.65;25.25;;;18.70;77.90;;;;;;5047768;28;20047;-68
2021/10/09 09:45:22;;;;;;;29.70;25.60;;;18.50;75.40;;;;;;5053031;28;20489;-67
2021/10/09 09:47:48;;;;;;;29.98;26.27;;;18.80;75.60;;;;;;5050870;28;20075;-67
2021/10/09 09:50:14;;;;;;;28.83;25.77;;;18.80;76.00;;;;;;5044999;28;20052;-67
2021/10/09 09:52:45;;;;;;;28.38;25.50;;;19.00;76.00;;;;;;5039097;28;20079;-67
2021/10/09 09:55:13;;;;;;;29.90;25.40;;;18.80;74.50;;;;;;5054518;28;20045;-67
2021/10/09 09:57:40;;;;;;;28.90;24.90;;;18.90;75.00;;;;;;5059393;28;20040;-67
2021/10/09 10:00:07;;;;;;;28.35;25.13;;;19.00;75.40;;;;;;5055374;28;20550;-67
2021/10/09 10:02:39;;;;;;;28.30;25.48;;;18.70;74.20;;;;;;5057424;28;20037;-67
2021/10/09 10:05:05;;;;;;;29.25;26.15;;;18.60;74.70;;;;;;5058499;28;20055;-67
2021/10/09 10:07:34;;;;;;;27.83;24.35;;;18.90;74.40;;;;;;5054773;28;20041;-67
2021/10/09 10:10:00;;;;;;;26.08;22.90;;;18.50;73.30;;;;;;5053406;28;20085;-67
2021/10/09 10:12:26;;;;;;;28.40;23.63;;;18.00;75.20;;;;;;5051524;28;20045;-67
2021/10/09 10:14:53;;;;;;;28.52;23.67;;;17.50;75.80;;;;;;5034032;28;20059;-67
2021/10/09 10:17:42;;;;;;;30.65;24.70;;;17.20;76.10;;;;;;5059487;28;20036;-67
2021/10/09 10:20:16;;;;;;;26.65;23.38;;;17.10;78.50;;;;;;5054805;28;20068;-66
2021/10/09 10:22:41;;;;;;;27.33;24.33;;;17.20;78.60;;;;;;5057029;28;20037;-66
2021/10/09 10:25:28;;;;;;;28.35;24.98;;;17.60;78.30;;;;;;5054005;28;20094;-66
2021/10/09 10:28:07;;;;;;;27.83;24.83;;;18.50;76.00;;;;;;5063043;28;20036;-66
2021/10/09 10:30:37;;;;;;;30.20;25.55;;;18.50;70.90;;;;;;5054995;28;20040;-66
2021/10/09 10:33:06;;;;;;;28.83;25.88;;;18.90;71.20;;;;;;5036541;28;20057;-66
2021/10/09 10:35:32;;;;;;;28.35;24.38;;;18.90;71.10;;;;;;5048298;28;20060;-66
2021/10/09 10:38:04;;;;;;;27.73;24.85;;;19.20;70.60;;;;;;5055826;28;20390;-66
2021/10/09 10:40:54;;;;;;;30.33;24.33;;;19.50;71.70;;;;;;5015386;28;20056;-66
2021/10/09 10:46:00;;;;;;;27.83;24.92;;;20.30;65.10;;;;;;5050213;28;20044;-67
2021/10/09 10:48:56;;;;;;;27.83;23.52;;;20.30;67.50;;;;;;5055961;28;20055;-66
2021/10/09 10:52:07;;;;;;;26.58;23.67;;;20.70;65.30;;;;;;5049552;28;20036;-66
2021/10/09 10:57:02;;;;;;;26.83;23.92;;;20.70;64.60;;;;;;5050891;28;20049;-67
2021/10/09 10:59:55;;;;;;;28.05;24.77;;;20.80;65.00;;;;;;5034233;28;20255;-66
2021/10/09 11:02:36;;;;;;;28.45;25.45;;;20.90;64.70;;;;;;5047036;28;20102;-66
2021/10/09 11:05:13;;;;;;;29.40;24.38;;;21.10;61.30;;;;;;5065007;28;20124;-66
2021/10/09 11:07:41;;;;;;;29.52;24.92;;;20.90;62.90;;;;;;5050621;28;20419;-66
2021/10/09 11:10:15;;;;;;;28.23;25.20;;;20.80;63.10;;;;;;5055512;28;20040;-66
2021/10/09 11:12:43;;;;;;;26.73;23.77;;;20.70;61.90;;;;;;5054926;28;20045;-66
2021/10/09 11:15:20;;;;;;;28.35;23.83;;;20.40;61.60;;;;;;5056128;28;20040;-66
2021/10/09 11:17:56;;;;;;;24.77;22.15;;;20.30;61.30;;;;;;5051076;28;20227;-67
2021/10/09 11:20:27;;;;;;;27.58;23.95;;;20.10;62.80;;;;;;5033622;28;20049;-66
2021/10/09 11:22:55;;;;;;;26.88;23.60;;;20.40;64.70;;;;;;5042682;28;20053;-64
2021/10/09 11:25:38;;;;;;;29.65;23.98;;;20.70;62.50;;;;;;5057993;28;20036;-66
2021/10/09 11:28:28;;;;;;;31.00;24.13;;;20.90;60.00;;;;;;5055998;28;20049;-66
2021/10/09 11:30:54;;;;;;;28.55;23.63;;;21.10;61.50;;;;;;5063563;28;20136;-66
2021/10/09 11:33:27;;;;;;;28.00;22.60;;;21.10;60.50;;;;;;5047210;28;20068;-66
2021/10/09 11:35:54;;;;;;;26.63;23.77;;;21.30;61.00;;;;;;5053411;28;20409;-66
2021/10/09 11:38:22;;;;;;;26.48;23.77;;;21.50;60.30;;;;;;5052857;28;20067;-66
2021/10/09 11:40:53;;;;;;;25.15;21.98;;;21.50;59.80;;;;;;5063343;28;20028;-66
2021/10/09 11:43:32;;;;;;;29.08;22.55;;;21.40;60.30;;;;;;5034118;28;20056;-65
2021/10/09 11:46:11;;;;;;;25.73;21.13;;;21.30;59.70;;;;;;5035674;28;20049;-66
2021/10/09 11:57:14;;;;;;;25.38;21.00;;;21.30;57.60;;;;;;5063336;28;20412;-66
2021/10/09 11:59:41;;;;;;;26.10;21.00;;;21.10;58.00;;;;;;5052029;28;20037;-66
2021/10/09 12:02:08;;;;;;;24.23;20.45;;;21.50;57.80;;;;;;5053945;28;20036;-66
2021/10/09 12:04:35;;;;;;;25.45;21.20;;;21.50;56.90;;;;;;5055790;28;20039;-65
2021/10/09 12:07:09;;;;;;;24.85;21.20;;;21.50;55.90;;;;;;5051135;28;20388;-66
2021/10/09 12:09:44;;;;;;;25.23;20.70;;;21.50;57.00;;;;;;5051392;28;20116;-65
2021/10/09 12:12:24;;;;;;;23.15;19.75;;;21.70;55.90;;;;;;5042300;28;20045;-65
2021/10/09 12:14:54;;;;;;;26.42;20.50;;;21.50;54.40;;;;;;5034120;28;20397;-65
2021/10/09 12:17:22;;;;;;;23.92;21.35;;;21.20;55.40;;;;;;5065031;28;20094;-65
2021/10/09 12:20:02;;;;;;;21.67;19.20;;;21.40;56.70;;;;;;5058369;28;20029;-66
2021/10/09 12:22:39;;;;;;;21.88;18.23;;;22.00;55.30;;;;;;5052874;28;20494;-65
2021/10/09 12:25:05;;;;;;;22.15;17.58;;;22.20;55.20;;;;;;5052828;28;20520;-66
2021/10/09 12:27:40;;;;;;;26.35;19.50;;;22.10;54.60;;;;;;5063198;28;20097;-66
2021/10/09 12:30:09;;;;;;;25.63;20.67;;;21.40;54.10;;;;;;5057796;28;20043;-66
2021/10/09 12:32:39;;;;;;;21.80;19.50;;;20.80;56.00;;;;;;5062788;28;20048;-65
2021/10/09 12:35:15;;;;;;;21.63;18.35;;;19.80;58.00;;;;;;5054790;28;20081;-66
2021/10/09 12:37:57;;;;;;;20.73;18.40;;;18.90;59.90;;;;;;5041773;28;20049;-66
2021/10/09 12:40:28;;;;;;;26.25;19.33;;;17.80;62.80;;;;;;5046892;28;20119;-66
2021/10/09 12:42:58;;;;;;;23.10;18.50;;;17.30;65.50;;;;;;5053845;28;20115;-66
2021/10/09 12:45:25;;;;;;;23.40;18.35;;;17.50;65.60;;;;;;5053738;28;20044;-67
2021/10/09 12:47:51;;;;;;;22.75;18.45;;;18.00;65.10;;;;;;5064259;28;20055;-65
2021/10/09 12:50:18;;;;;;;19.90;17.13;;;18.60;62.90;;;;;;5051692;28;20494;-65
2021/10/09 12:52:46;;;;;;;21.55;17.10;;;19.40;61.50;;;;;;5055183;28;20041;-65
2021/10/09 12:55:13;;;;;;;20.83;16.85;;;20.20;59.40;;;;;;5027924;28;20056;-66
2021/10/09 12:57:54;;;;;;;23.85;18.38;;;20.70;59.80;;;;;;5049072;28;20485;-66
2021/10/09 13:00:21;;;;;;;21.48;18.23;;;21.00;56.80;;;;;;5039385;28;20052;-66
2021/10/09 13:02:47;;;;;;;20.52;16.98;;;20.90;56.60;;;;;;5035046;28;20049;-66
2021/10/09 13:05:13;;;;;;;22.80;18.48;;;20.60;56.90;;;;;;5045725;28;20101;-67
2021/10/09 13:07:39;;;;;;;22.40;16.63;;;20.30;57.90;;;;;;5051934;28;20429;-67
2021/10/09 13:10:06;;;;;;;21.70;17.25;;;19.60;59.80;;;;;;5054725;28;20157;-66
2021/10/09 13:12:32;;;;;;;25.00;17.35;;;18.90;60.30;;;;;;5031664;28;20071;-66
2021/10/09 13:14:58;;;;;;;22.77;18.02;;;18.20;61.90;;;;;;5055541;28;21373;-67
2021/10/09 13:17:24;;;;;;;20.58;17.65;;;17.90;63.50;;;;;;5052572;28;20044;-66
2021/10/09 13:19:49;;;;;;;23.02;17.08;;;17.40;64.80;;;;;;5065020;28;20040;-66
2021/10/09 13:22:15;;;;;;;20.92;16.73;;;17.10;64.90;;;;;;5057704;28;20093;-66
2021/10/09 13:24:41;;;;;;;20.90;16.88;;;17.00;64.90;;;;;;5049325;28;20539;-66
2021/10/09 13:27:06;;;;;;;20.05;16.15;;;16.80;65.50;;;;;;5058967;28;20032;-66
2021/10/09 13:29:32;;;;;;;21.27;16.55;;;16.80;65.80;;;;;;5066734;28;20059;-66
2021/10/09 13:31:58;;;;;;;21.77;15.98;;;16.60;66.40;;;;;;5059580;28;20410;-66
2021/10/09 13:34:24;;;;;;;21.60;15.80;;;16.30;67.30;;;;;;5060674;28;21029;-66
2021/10/09 13:36:50;;;;;;;23.35;16.38;;;16.20;67.50;;;;;;5054466;28;20048;-66
2021/10/09 13:39:16;;;;;;;21.38;17.38;;;15.80;68.80;;;;;;5065163;28;20067;-66
2021/10/09 13:41:42;;;;;;;22.65;16.52;;;15.60;70.40;;;;;;5042772;28;20060;-66
2021/10/09 13:44:07;;;;;;;27.80;17.08;;;15.50;70.40;;;;;;5066157;28;20193;-66
2021/10/09 13:46:33;;;;;;;21.38;16.98;;;15.50;70.60;;;;;;5064645;28;20107;-66
2021/10/09 13:48:59;;;;;;;19.88;16.83;;;15.40;71.10;;;;;;5061127;28;20102;-66
2021/10/09 13:51:25;;;;;;;21.85;16.63;;;15.30;72.10;;;;;;5059341;28;20044;-66
2021/10/09 13:53:51;;;;;;;21.55;15.88;;;15.30;72.40;;;;;;5059679;28;20489;-66
2021/10/09 13:56:16;;;;;;;23.85;15.73;;;15.20;73.00;;;;;;5063954;28;20124;-66
2021/10/09 13:58:43;;;;;;;21.30;15.70;;;15.20;73.30;;;;;;5058178;28;20091;-66
2021/10/09 14:01:08;;;;;;;18.00;14.82;;;15.20;74.50;;;;;;5058145;28;20570;-66
2021/10/09 14:03:36;;;;;;;22.85;14.18;;;15.20;74.60;;;;;;5058069;28;20056;-66
2021/10/09 14:06:02;;;;;;;17.42;14.70;;;15.20;73.70;;;;;;5064579;28;20467;-66
2021/10/09 14:08:29;;;;;;;18.63;13.15;;;15.20;73.20;;;;;;5039978;28;20065;-67
2021/10/09 14:10:55;;;;;;;19.52;13.93;;;15.10;73.80;;;;;;5056444;28;20048;-67
2021/10/09 14:13:22;;;;;;;18.50;14.20;;;15.10;74.50;;;;;;5031081;28;20048;-67
2021/10/09 14:15:49;;;;;;;18.30;14.95;;;15.10;75.20;;;;;;5039030;28;20090;-67
2021/10/09 14:18:18;;;;;;;21.05;14.82;;;15.10;75.10;;;;;;5049254;28;20093;-67
2021/10/09 14:20:49;;;;;;;20.13;14.85;;;15.00;74.80;;;;;;5046078;28;20501;-66
2021/10/09 14:23:15;;;;;;;18.90;14.35;;;15.00;75.00;;;;;;5052038;28;20400;-67
2021/10/09 14:25:42;;;;;;;22.42;15.65;;;15.00;75.50;;;;;;5067779;28;20074;-67
2021/10/09 14:28:09;;;;;;;18.75;14.60;;;15.00;76.30;;;;;;5053588;28;20396;-67
2021/10/09 14:30:35;;;;;;;26.23;15.65;;;15.00;76.60;;;;;;5059483;28;20592;-67
2021/10/09 14:33:01;;;;;;;20.60;15.20;;;15.00;76.70;;;;;;5064783;28;20045;-67
2021/10/09 14:35:27;;;;;;;19.08;14.70;;;15.00;77.40;;;;;;5044633;28;20466;-66
2021/10/09 14:37:53;;;;;;;20.55;14.45;;;14.90;76.60;;;;;;5049854;28;20400;-67
2021/10/09 14:40:19;;;;;;;19.00;14.45;;;15.00;76.40;;;;;;5042233;28;20041;-67
2021/10/09 14:42:46;;;;;;;17.05;13.70;;;15.00;76.10;;;;;;5048435;28;20424;-67
2021/10/09 14:45:16;;;;;;;22.63;15.98;;;15.00;77.00;;;;;;5050607;28;20043;-66
2021/10/09 15:19:29;;;;;;;21.67;14.93;;;14.80;79.90;;;;;;5053115;28;20049;-65
2021/10/09 15:21:55;;;;;;;21.77;14.57;;;14.80;80.20;;;;;;5049651;28;20139;-65
2021/10/09 15:24:20;;;;;;;17.55;13.80;;;14.80;80.50;;;;;;5041406;28;20060;-66